Time;durP1;ratioP1;P1;durP2;ratioP2;P2;SDS_P1;SDS_P2;PMS_P1;PMS_P2;Temp;Humidity;BMP_temperature;BMP_pressure;BME280_temperature;BME280_humidity;BME280_pressure;Samples;Min_cycle;Max_cycle;Signal;HPM_P1;HPM_P2
2023/02/14 00:01:45;;;;;;;0.55;0.55;;;;;;;5.03;79.13;101384.91;5093316;28;20054;-66
2023/02/14 00:04:15;;;;;;;1.02;0.82;;;;;;;4.99;79.41;101377.94;5093516;28;20447;-66
2023/02/14 00:06:44;;;;;;;0.68;0.68;;;;;;;4.99;79.36;101380.47;5093261;28;20048;-66
2023/02/14 00:09:15;;;;;;;2.40;2.20;;;;;;;4.96;79.23;101380.34;5093503;28;20443;-66
2023/02/14 00:11:45;;;;;;;1.98;1.88;;;;;;;5.01;79.36;101378.91;5093466;28;20082;-66
2023/02/14 00:16:54;;;;;;;6.05;1.65;;;;;;;5.07;79.26;101390.97;5093242;28;19924;-66
2023/02/14 00:19:23;;;;;;;2.00;1.60;;;;;;;5.11;79.42;101393.72;5093160;28;20036;-65
2023/02/14 00:21:52;;;;;;;1.35;1.25;;;;;;;5.12;79.03;101389.53;5093122;28;20048;-66
2023/02/14 00:24:23;;;;;;;1.35;1.17;;;;;;;5.11;79.21;101393.72;5093520;28;20052;-66
2023/02/14 00:26:53;;;;;;;0.93;0.93;;;;;;;5.11;79.12;101388.66;5093857;28;20047;-66
2023/02/14 00:29:24;;;;;;;;;;;;;;;5.14;79.10;101387.94;5093806;28;20056;-65
2023/02/14 00:31:53;;;;;;;0.60;0.60;;;;;;;5.19;79.13;101392.44;5092983;28;19920;-66
2023/02/14 00:34:24;;;;;;;1.15;0.98;;;;;;;5.20;79.14;101386.59;5092931;28;20054;-66
2023/02/14 00:36:53;;;;;;;2.78;1.85;;;;;;;5.22;79.15;101382.47;5092347;28;20462;-66
2023/02/14 00:39:22;;;;;;;0.60;0.60;;;;;;;5.24;78.77;101391.00;5092984;28;20075;-66
2023/02/14 00:41:52;;;;;;;0.75;0.75;;;;;;;5.26;78.61;101389.41;5096516;28;20044;-66
2023/02/14 00:44:20;;;;;;;1.05;0.95;;;;;;;5.30;78.62;101381.16;5096425;28;20047;-65
2023/02/14 00:46:51;;;;;;;2.13;1.93;;;;;;;5.30;78.45;101383.69;5096545;28;20036;-66
2023/02/14 00:49:19;;;;;;;1.85;0.95;;;;;;;5.31;78.56;101379.50;5096708;28;20052;-66
2023/02/14 00:51:48;;;;;;;2.20;1.98;;;;;;;5.29;78.57;101384.50;5096313;28;20048;-66
2023/02/14 00:54:17;;;;;;;1.87;1.77;;;;;;;5.29;78.43;101371.84;5096565;28;20066;-66
2023/02/14 00:56:46;;;;;;;0.40;0.40;;;;;;;5.28;78.60;101362.50;5095077;28;20036;-66
2023/02/14 00:59:15;;;;;;;0.50;0.50;;;;;;;5.30;78.19;101371.03;5096521;28;20119;-66
2023/02/14 01:01:43;;;;;;;0.40;0.40;;;;;;;5.32;78.20;101373.66;5094991;28;20072;-66
2023/02/14 01:04:13;;;;;;;0.50;0.50;;;;;;;5.33;78.19;101375.38;5096377;28;20406;-65
2023/02/14 01:06:42;;;;;;;1.42;1.33;;;;;;;5.34;78.15;101378.00;5096313;28;20052;-65
2023/02/14 01:09:13;;;;;;;2.55;2.20;;;;;;;5.35;77.88;101378.88;5096360;28;20048;-66
2023/02/14 01:11:42;;;;;;;0.65;0.65;;;;;;;5.34;78.15;101370.38;5094693;28;20051;-66
2023/02/14 01:14:11;;;;;;;2.95;1.52;;;;;;;5.32;77.75;101364.41;5095952;28;20082;-66
2023/02/14 01:16:40;;;;;;;0.55;0.55;;;;;;;5.34;77.99;101362.78;5094608;28;20093;-66
2023/02/14 01:19:09;;;;;;;1.80;1.70;;;;;;;5.32;77.83;101361.00;5096668;28;20059;-66
2023/02/14 01:21:39;;;;;;;0.53;0.53;;;;;;;5.32;77.82;101364.41;5094905;28;20042;-66
2023/02/14 01:24:09;;;;;;;0.80;0.80;;;;;;;5.32;77.59;101359.34;5094839;28;20222;-66
2023/02/14 01:26:39;;;;;;;1.80;1.38;;;;;;;5.33;77.27;101355.97;5095683;28;20047;-66
2023/02/14 01:29:09;;;;;;;1.17;0.93;;;;;;;5.33;77.80;101355.97;5094511;28;20059;-66
2023/02/14 01:31:38;;;;;;;0.82;0.82;;;;;;;5.33;77.86;101350.91;5095523;28;20074;-66
2023/02/14 01:34:07;;;;;;;1.10;0.98;;;;;;;5.34;77.60;101342.53;5095499;28;20036;-65
2023/02/14 01:36:38;;;;;;;0.85;0.85;;;;;;;5.36;77.77;101350.19;5095671;28;20048;-66
2023/02/14 01:39:12;;;;;;;2.33;1.25;;;;;;;5.35;77.69;101344.25;5094287;28;20135;-66
2023/02/14 01:41:44;;;;;;;0.30;0.30;;;;;;;5.37;77.57;101337.59;5095421;28;20075;-65
2023/02/14 01:44:37;;;;;;;0.30;0.30;;;;;;;5.39;77.42;101335.16;5095937;28;20052;-65
2023/02/14 01:47:10;;;;;;;2.28;2.15;;;;;;;5.39;77.46;101335.16;5095122;28;20089;-65
2023/02/14 01:49:45;;;;;;;1.23;1.08;;;;;;;5.41;77.39;101342.03;5095407;28;20044;-66
2023/02/14 01:52:19;;;;;;;0.45;0.45;;;;;;;5.42;77.34;101335.31;5095159;28;20083;-66
2023/02/14 01:54:55;;;;;;;0.63;0.63;;;;;;;5.45;77.20;101330.38;5095476;28;20405;-66
2023/02/14 01:57:28;;;;;;;3.00;1.95;;;;;;;5.45;77.11;101330.38;5094163;28;20088;-66
2023/02/14 02:02:44;;;;;;;0.32;0.32;;;;;;;5.47;77.14;101325.41;5094718;28;20131;-66
2023/02/14 02:05:15;;;;;;;4.43;2.40;;;;;;;5.46;76.73;101326.19;5094893;28;20075;-66
2023/02/14 02:07:44;;;;;;;1.20;1.15;;;;;;;5.46;76.96;101328.72;5094873;28;20094;-66
2023/02/14 02:10:15;;;;;;;1.60;1.50;;;;;;;5.44;77.01;101328.66;5093685;28;20094;-66
2023/02/14 02:12:44;;;;;;;0.20;0.20;;;;;;;5.45;76.51;101325.31;5094810;28;20051;-66
2023/02/14 02:15:15;;;;;;;0.85;0.85;;;;;;;5.47;76.61;101320.31;5094728;28;20409;-66
2023/02/14 02:17:53;;;;;;;1.20;0.95;;;;;;;5.46;76.89;101321.13;5094972;28;20502;-66
2023/02/14 02:20:46;;;;;;;0.85;0.80;;;;;;;5.46;76.44;101321.13;5094981;28;20414;-66
2023/02/14 02:23:46;;;;;;;0.50;0.50;;;;;;;5.43;76.55;101316.78;5084956;28;20054;-66
2023/02/14 02:26:45;;;;;;;0.40;0.40;;;;;;;5.45;76.29;101316.88;5094641;28;20044;-65
2023/02/14 02:29:42;;;;;;;1.10;1.02;;;;;;;5.42;76.49;101315.91;5094545;28;20047;-66
2023/02/14 02:32:32;;;;;;;1.23;1.15;;;;;;;5.42;76.32;101315.91;5094709;28;20113;-65
2023/02/14 02:35:21;;;;;;;1.10;1.10;;;;;;;5.40;76.06;101317.50;5093552;28;20445;-65
2023/02/14 02:38:04;;;;;;;0.57;0.57;;;;;;;5.37;76.22;101309.75;5094381;28;20046;-66
2023/02/14 02:40:47;;;;;;;0.40;0.40;;;;;;;5.38;76.54;101308.97;5093087;28;20048;-65
2023/02/14 02:43:30;;;;;;;0.68;0.68;;;;;;;5.38;76.10;101308.09;5094267;28;20408;-66
2023/02/14 02:48:48;;;;;;;0.40;0.40;;;;;;;5.34;76.36;101302.03;5094246;28;20059;-65
2023/02/14 02:54:14;;;;;;;1.70;0.60;;;;;;;5.39;76.00;101307.31;5094344;28;20051;-66
2023/02/14 02:56:49;;;;;;;1.15;1.08;;;;;;;5.43;76.01;101301.59;5094386;28;20075;-66
2023/02/14 02:59:24;;;;;;;0.73;0.73;;;;;;;5.46;75.62;101308.44;5094328;28;20048;-66
2023/02/14 03:02:01;;;;;;;0.47;0.47;;;;;;;5.46;75.49;101308.44;5093475;28;20051;-66
2023/02/14 03:09:53;;;;;;;;;;;;;;;5.46;75.27;101304.25;5094858;28;20060;-66
2023/02/14 03:12:55;;;;;;;0.57;0.50;;;;;;;5.45;75.54;101309.28;5092958;28;19949;-66
2023/02/14 03:15:36;;;;;;;0.50;0.50;;;;;;;5.45;75.13;101305.03;5073057;28;20052;-66
2023/02/14 03:18:12;;;;;;;0.45;0.45;;;;;;;5.42;75.32;101304.94;5094077;28;20126;-65
2023/02/14 03:20:49;;;;;;;0.50;0.50;;;;;;;5.43;75.08;101312.59;5093662;28;20044;-66
2023/02/14 03:23:23;;;;;;;0.60;0.60;;;;;;;5.42;75.08;101305.78;5092780;28;20071;-65
2023/02/14 03:26:05;;;;;;;0.30;0.30;;;;;;;5.40;75.11;101307.38;5092539;28;20055;-65
2023/02/14 03:28:43;;;;;;;0.35;0.35;;;;;;;5.43;74.92;101302.47;5092485;28;20134;-66
2023/02/14 03:31:20;;;;;;;1.13;0.80;;;;;;;5.43;75.03;101310.06;5093861;28;20487;-65
2023/02/14 03:33:57;;;;;;;0.25;0.25;;;;;;;5.42;74.54;101310.84;5093582;28;20072;-66
2023/02/14 03:36:32;;;;;;;1.10;1.05;;;;;;;5.40;74.90;101312.44;5094192;28;20075;-66
2023/02/14 03:39:08;;;;;;;1.17;1.05;;;;;;;5.43;75.07;101312.59;5093596;28;20048;-65
2023/02/14 03:41:43;;;;;;;1.77;1.20;;;;;;;5.42;74.51;101310.84;5092280;28;20138;-66
2023/02/14 03:44:18;;;;;;;1.35;1.25;;;;;;;5.45;74.50;101314.34;5093528;28;20051;-66
2023/02/14 03:46:52;;;;;;;1.33;1.20;;;;;;;5.48;74.52;101309.38;5075731;28;20048;-65
2023/02/14 03:49:26;;;;;;;0.30;0.30;;;;;;;5.48;74.29;101319.50;5093521;28;20036;-65
2023/02/14 03:51:58;;;;;;;0.35;0.35;;;;;;;5.48;74.11;101315.31;5093407;28;20076;-65
2023/02/14 03:54:31;;;;;;;0.38;0.38;;;;;;;5.48;74.07;101315.31;5093680;28;20478;-66
2023/02/14 03:57:12;;;;;;;0.40;0.40;;;;;;;5.47;74.07;101303.44;5093457;28;20052;-66
2023/02/14 03:59:42;;;;;;;0.43;0.43;;;;;;;5.47;73.78;101307.66;5093320;28;20123;-66
2023/02/14 04:02:15;;;;;;;1.90;1.15;;;;;;;5.45;74.05;101294.91;5093308;28;20567;-65
2023/02/14 04:04:47;;;;;;;0.57;0.57;;;;;;;5.52;73.82;101303.69;5093697;28;20052;-66
2023/02/14 04:07:18;;;;;;;1.40;1.30;;;;;;;5.51;74.02;101295.22;5093610;28;20070;-66
2023/02/14 04:09:49;;;;;;;1.10;1.00;;;;;;;5.53;73.92;101287.66;5093312;28;20097;-65
2023/02/14 04:12:20;;;;;;;0.68;0.68;;;;;;;5.58;73.57;101296.34;5093399;28;20142;-66
2023/02/14 04:15:06;;;;;;;0.60;0.60;;;;;;;5.56;73.74;101296.28;5095482;28;20101;-66
2023/02/14 04:20:13;;;;;;;0.50;0.50;;;;;;;5.57;73.42;101300.53;5097045;28;20043;-66
2023/02/14 04:22:42;;;;;;;1.07;1.00;;;;;;;5.57;73.39;101297.13;5096899;28;20097;-65
2023/02/14 04:25:12;;;;;;;0.50;0.50;;;;;;;5.55;73.80;101296.19;5097445;28;20284;-66
2023/02/14 04:27:41;;;;;;;1.20;1.10;;;;;;;5.56;73.78;101292.88;5096875;28;20048;-66
2023/02/14 04:30:11;;;;;;;0.50;0.50;;;;;;;5.57;73.30;101294.59;5097347;28;20040;-66
2023/02/14 04:32:41;;;;;;;0.52;0.52;;;;;;;5.57;73.52;101294.59;5096715;28;20051;-65
2023/02/14 04:35:09;;;;;;;2.00;1.90;;;;;;;5.58;73.42;101288.75;5096959;28;20044;-65
2023/02/14 04:37:38;;;;;;;2.05;1.10;;;;;;;5.57;73.25;101292.06;5096644;28;20123;-66
2023/02/14 04:40:08;;;;;;;0.40;0.40;;;;;;;5.58;73.25;101296.34;5096892;28;20063;-66
2023/02/14 04:42:39;;;;;;;0.40;0.40;;;;;;;5.60;73.06;101299.81;5096550;28;20056;-66
2023/02/14 04:45:08;;;;;;;1.17;1.08;;;;;;;5.61;73.70;101291.44;5096529;28;20063;-66
2023/02/14 04:47:38;;;;;;;1.10;1.05;;;;;;;5.60;73.50;101294.75;5096392;28;20040;-67
2023/02/14 04:50:07;;;;;;;0.43;0.43;;;;;;;5.55;72.78;101283.53;5096371;28;20506;-65
2023/02/14 04:52:36;;;;;;;;;;;;;;;5.62;73.20;101288.06;5096735;28;20044;-66
2023/02/14 04:55:06;;;;;;;0.20;0.20;;;;;;;5.62;72.75;101288.06;5096187;28;19924;-66
2023/02/14 04:57:35;;;;;;;1.17;0.98;;;;;;;5.58;73.27;101286.22;5096847;28;20394;-65
2023/02/14 05:00:06;;;;;;;0.53;0.53;;;;;;;5.61;72.90;101288.91;5096262;28;20494;-66
2023/02/14 05:02:35;;;;;;;2.33;1.83;;;;;;;5.62;72.60;101288.06;5096218;28;20081;-66
2023/02/14 05:05:05;;;;;;;1.50;1.10;;;;;;;5.57;73.30;101279.41;5096058;28;20040;-66
2023/02/14 05:07:34;;;;;;;0.82;0.82;;;;;;;5.57;73.11;101284.47;5096448;28;20543;-66
2023/02/14 05:10:03;;;;;;;0.95;0.95;;;;;;;5.57;72.88;101290.41;5096046;28;20071;-66
2023/02/14 05:12:32;;;;;;;0.30;0.30;;;;;;;5.55;72.84;101286.06;5096238;28;20090;-65
2023/02/14 05:15:00;;;;;;;1.53;0.83;;;;;;;5.54;73.05;101279.28;5095702;28;20052;-65
2023/02/14 05:17:31;;;;;;;0.63;0.63;;;;;;;5.55;72.76;101283.53;5096242;28;20162;-66
2023/02/14 05:19:59;;;;;;;0.50;0.50;;;;;;;5.54;72.76;101289.41;5096169;28;20510;-65
2023/02/14 05:22:28;;;;;;;0.88;0.88;;;;;;;5.52;72.88;101288.50;5095802;28;20043;-66
2023/02/14 05:24:57;;;;;;;0.50;0.50;;;;;;;5.53;73.13;101292.75;5095551;28;20036;-66
2023/02/14 05:27:26;;;;;;;0.27;0.27;;;;;;;5.53;72.95;101287.66;5095709;28;20044;-66
2023/02/14 05:29:55;;;;;;;0.37;0.37;;;;;;;5.54;72.80;101290.28;5096013;28;20131;-66
2023/02/14 05:32:23;;;;;;;2.75;1.65;;;;;;;5.54;72.71;101274.22;5095914;28;20280;-66
2023/02/14 05:34:54;;;;;;;1.13;1.13;;;;;;;5.50;72.36;101272.34;5095440;28;20126;-65
2023/02/14 05:37:23;;;;;;;1.27;1.08;;;;;;;5.47;72.62;101282.34;5095522;28;20075;-66
2023/02/14 05:39:51;;;;;;;3.53;1.37;;;;;;;5.46;72.75;101280.59;5095494;28;20067;-66
2023/02/14 05:42:20;;;;;;;10.13;4.20;;;;;;;5.45;72.98;101289.00;5095696;28;20040;-65
2023/02/14 05:44:49;;;;;;;1.33;1.23;;;;;;;5.47;72.66;101287.41;5095931;28;20042;-66
2023/02/14 05:47:18;;;;;;;1.77;1.67;;;;;;;5.47;72.63;101292.47;5095387;28;20043;-66
2023/02/14 05:49:46;;;;;;;0.95;0.93;;;;;;;5.50;72.59;101292.59;5095504;28;20052;-65
2023/02/14 05:52:17;;;;;;;2.38;1.88;;;;;;;5.50;72.35;101290.94;5095851;28;20044;-66
2023/02/14 05:54:46;;;;;;;2.05;1.88;;;;;;;5.47;72.31;101287.41;5095368;28;20150;-65
2023/02/14 05:57:14;;;;;;;2.75;0.80;;;;;;;5.50;72.43;101290.06;5095086;28;20040;-65
2023/02/14 05:59:43;;;;;;;1.47;1.37;;;;;;;5.49;72.46;101285.81;5095172;28;20115;-66
2023/02/14 06:02:13;;;;;;;0.98;0.95;;;;;;;5.48;72.21;101279.88;5094998;28;20071;-66
2023/02/14 06:04:41;;;;;;;0.57;0.57;;;;;;;5.50;72.22;101282.47;5095128;28;20089;-66
2023/02/14 06:07:10;;;;;;;1.30;0.82;;;;;;;5.51;72.17;101284.22;5094859;28;20071;-66
2023/02/14 06:09:40;;;;;;;2.10;1.90;;;;;;;5.49;72.37;101290.88;5094907;28;20478;-66
2023/02/14 06:12:09;;;;;;;1.13;1.02;;;;;;;5.49;72.45;101293.41;5095366;28;20363;-66
2023/02/14 06:14:40;;;;;;;0.35;0.35;;;;;;;5.50;72.49;101290.94;5094579;28;20462;-66
2023/02/14 06:17:10;;;;;;;0.28;0.28;;;;;;;5.53;72.52;101292.75;5095290;28;20464;-66
2023/02/14 06:19:38;;;;;;;1.45;1.35;;;;;;;5.53;72.42;101292.75;5094547;28;20032;-66
2023/02/14 06:22:07;;;;;;;1.40;1.23;;;;;;;5.53;72.32;101297.81;5094821;28;20032;-66
2023/02/14 06:24:37;;;;;;;0.47;0.47;;;;;;;5.54;72.07;101304.63;5094848;28;20327;-66
2023/02/14 06:27:07;;;;;;;1.60;1.40;;;;;;;5.55;72.13;101298.72;5094835;28;20036;-67
2023/02/14 06:29:36;;;;;;;1.60;1.50;;;;;;;5.55;72.52;101304.66;5094454;28;20075;-66
2023/02/14 06:32:05;;;;;;;0.85;0.80;;;;;;;5.53;72.12;101303.75;5094430;28;20043;-65
2023/02/14 06:34:35;;;;;;;1.13;1.08;;;;;;;5.54;72.35;101309.69;5094377;28;20032;-66
2023/02/14 06:37:04;;;;;;;1.33;1.23;;;;;;;5.58;72.41;101314.06;5093545;28;20054;-66
2023/02/14 06:39:33;;;;;;;0.80;0.80;;;;;;;5.59;72.36;101313.28;5094628;28;20060;-66
2023/02/14 06:42:01;;;;;;;0.88;0.77;;;;;;;5.60;72.33;101315.00;5094593;28;20087;-65
2023/02/14 06:44:32;;;;;;;1.13;1.07;;;;;;;5.64;72.42;101321.97;5094784;28;20075;-67
2023/02/14 06:47:01;;;;;;;0.70;0.70;;;;;;;5.65;72.17;101313.56;5094117;28;20071;-66
2023/02/14 06:49:30;;;;;;;1.70;1.60;;;;;;;5.66;72.36;101313.63;5093165;28;20428;-66
2023/02/14 06:51:59;;;;;;;1.88;1.77;;;;;;;5.69;72.14;101310.34;5094029;28;20042;-66
2023/02/14 06:54:27;;;;;;;0.95;0.85;;;;;;;5.73;71.94;101312.25;5093930;28;20068;-66
2023/02/14 06:56:56;;;;;;;2.10;1.73;;;;;;;5.76;72.11;101312.38;5094563;28;20123;-66
2023/02/14 06:59:25;;;;;;;1.55;1.45;;;;;;;5.80;72.21;101314.25;5093948;28;20089;-66
2023/02/14 07:01:55;;;;;;;1.33;1.08;;;;;;;5.81;72.04;101310.91;5094188;28;20079;-66
2023/02/14 07:04:24;;;;;;;0.93;0.85;;;;;;;5.84;71.80;101311.03;5094250;28;20043;-65
2023/02/14 07:06:53;;;;;;;0.85;0.85;;;;;;;5.86;71.48;101317.06;5094203;28;20120;-66
2023/02/14 07:09:22;;;;;;;1.10;1.03;;;;;;;5.88;71.50;101310.41;5094083;28;20064;-67
2023/02/14 07:11:51;;;;;;;0.38;0.38;;;;;;;5.89;71.42;101317.22;5093733;28;20044;-66
2023/02/14 07:14:19;;;;;;;0.73;0.70;;;;;;;5.92;71.22;101324.97;5094132;28;20062;-66
2023/02/14 07:16:48;;;;;;;3.25;1.67;;;;;;;5.94;71.03;101323.34;5093706;28;20156;-66
2023/02/14 07:19:18;;;;;;;1.73;1.53;;;;;;;5.96;71.71;101329.34;5093746;28;20089;-66
2023/02/14 07:21:47;;;;;;;1.35;1.25;;;;;;;5.99;71.29;101334.56;5094073;28;20512;-65
2023/02/14 07:24:16;;;;;;;1.48;1.38;;;;;;;6.01;70.95;101332.97;5093757;28;20039;-66
2023/02/14 07:26:44;;;;;;;1.23;1.17;;;;;;;6.02;71.26;101332.16;5094171;28;20068;-66
2023/02/14 07:29:13;;;;;;;1.60;1.40;;;;;;;6.03;70.96;101333.88;5093588;28;20051;-66
2023/02/14 07:31:42;;;;;;;2.13;1.92;;;;;;;6.05;70.76;101327.22;5093630;28;20032;-66
2023/02/14 07:34:11;;;;;;;1.67;1.55;;;;;;;6.09;71.35;101334.16;5093766;28;20448;-66
2023/02/14 07:36:42;;;;;;;0.82;0.82;;;;;;;6.07;70.98;101336.63;5093444;28;20067;-66
2023/02/14 07:39:12;;;;;;;2.15;1.95;;;;;;;6.09;71.05;101321.50;5093731;28;20382;-66
2023/02/14 07:41:40;;;;;;;2.60;2.40;;;;;;;6.12;71.36;101329.22;5093512;28;20115;-66
2023/02/14 07:44:11;;;;;;;1.67;1.58;;;;;;;6.12;71.10;101326.69;5093403;28;20113;-66
2023/02/14 07:46:40;;;;;;;4.05;2.58;;;;;;;6.14;71.40;101321.69;5093361;28;20043;-66
2023/02/14 07:49:08;;;;;;;1.80;1.55;;;;;;;6.17;70.90;101326.91;5096399;28;20497;-66
2023/02/14 07:51:37;;;;;;;3.73;2.20;;;;;;;6.18;70.86;101324.41;5097391;28;20165;-66
2023/02/14 07:54:07;;;;;;;1.42;0.98;;;;;;;6.26;70.87;101338.31;5097711;28;20476;-67
2023/02/14 07:56:36;;;;;;;1.58;1.30;;;;;;;6.47;70.34;101334.13;5096280;28;20511;-67
2023/02/14 07:59:05;;;;;;;1.70;1.60;;;;;;;6.67;70.40;101338.34;5097291;28;20092;-66
2023/02/14 08:01:34;;;;;;;1.23;1.13;;;;;;;6.92;70.08;101341.91;5098032;28;20140;-66
2023/02/14 08:04:03;;;;;;;2.28;2.08;;;;;;;7.15;69.29;101348.78;5102200;28;20109;-65
2023/02/14 08:06:32;;;;;;;2.27;2.07;;;;;;;7.14;68.74;101352.13;5112529;28;20399;-66
2023/02/14 08:09:01;;;;;;;1.38;1.27;;;;;;;7.03;68.18;101353.38;5117888;28;20385;-66
2023/02/14 08:14:09;;;;;;;1.25;1.15;;;;;;;6.98;68.68;101349.78;5112202;28;20166;-65
2023/02/14 08:16:38;;;;;;;1.75;1.48;;;;;;;7.03;68.83;101353.38;5117480;28;20138;-65
2023/02/14 08:19:07;;;;;;;3.25;1.90;;;;;;;6.96;68.52;101361.53;5117389;28;20093;-66
2023/02/14 08:21:36;;;;;;;0.67;0.67;;;;;;;6.93;68.50;101344.53;5117263;28;20039;-65
2023/02/14 08:24:05;;;;;;;5.00;1.40;;;;;;;6.89;67.97;101349.38;5117654;28;20042;-67
2023/02/14 08:26:35;;;;;;;1.83;1.73;;;;;;;6.89;67.14;101354.47;5117215;28;20039;-66
2023/02/14 08:29:04;;;;;;;1.60;1.50;;;;;;;6.98;67.83;101354.84;5112260;28;20308;-67
2023/02/14 08:31:33;;;;;;;8.75;1.75;;;;;;;7.13;67.87;101350.38;5099161;28;20040;-66
2023/02/14 08:34:04;;;;;;;1.23;1.13;;;;;;;7.13;65.83;101355.44;5097008;28;20040;-66
2023/02/14 08:36:33;;;;;;;9.10;2.05;;;;;;;7.10;65.70;101361.25;5096547;28;20036;-66
2023/02/14 08:39:04;;;;;;;3.65;1.63;;;;;;;7.21;65.18;101361.72;5097268;28;20481;-66
2023/02/14 08:41:35;;;;;;;1.52;1.33;;;;;;;7.46;65.42;101366.09;5097029;28;20044;-66
2023/02/14 08:44:04;;;;;;;3.42;1.80;;;;;;;7.55;63.88;101361.34;5105250;28;20055;-65
2023/02/14 08:46:33;;;;;;;3.00;0.88;;;;;;;7.62;63.57;101363.31;5116791;28;20051;-65
2023/02/14 08:49:02;;;;;;;1.23;1.13;;;;;;;7.65;63.65;101363.44;5096791;28;20036;-65
2023/02/14 08:51:31;;;;;;;3.40;1.47;;;;;;;7.48;62.66;101370.41;5096176;28;20277;-65
2023/02/14 08:54:01;;;;;;;0.55;0.55;;;;;;;7.26;62.00;101362.75;5102234;28;20044;-66
2023/02/14 08:56:29;;;;;;;1.52;1.42;;;;;;;7.14;62.72;101369.88;5096296;28;20078;-67
2023/02/14 08:58:59;;;;;;;2.17;1.05;;;;;;;7.07;62.29;101373.00;5112866;28;20051;-67
2023/02/14 09:01:28;;;;;;;2.20;1.90;;;;;;;7.09;62.88;101374.78;5107652;28;20070;-67
2023/02/14 09:03:57;;;;;;;1.63;1.52;;;;;;;7.13;63.04;101380.84;5096062;28;20048;-67
2023/02/14 09:06:26;;;;;;;1.43;0.90;;;;;;;7.13;62.75;101385.91;5096333;28;20070;-67
2023/02/14 09:08:55;;;;;;;2.53;1.60;;;;;;;7.09;62.82;101384.06;5095927;28;20098;-67
2023/02/14 09:11:25;;;;;;;1.13;1.07;;;;;;;7.11;62.87;101383.31;5096312;28;20036;-67
2023/02/14 09:13:54;;;;;;;2.45;2.25;;;;;;;7.08;62.79;101378.13;5096177;28;20068;-66
2023/02/14 09:16:25;;;;;;;1.60;1.50;;;;;;;7.10;63.30;101380.75;5095974;28;20561;-67
2023/02/14 09:18:55;;;;;;;0.85;0.85;;;;;;;7.13;63.03;101380.84;5096137;28;20052;-66
2023/02/14 09:21:27;;;;;;;1.45;1.27;;;;;;;7.12;63.22;101379.13;5095784;28;20044;-66
2023/02/14 09:23:55;;;;;;;0.82;0.82;;;;;;;7.09;63.19;101384.94;5096793;28;20055;-67
2023/02/14 09:26:24;;;;;;;0.95;0.88;;;;;;;7.09;63.93;101384.06;5110950;28;20096;-67
2023/02/14 09:28:53;;;;;;;1.40;1.30;;;;;;;7.04;63.46;101388.09;5116660;27;20482;-68
2023/02/14 09:31:25;;;;;;;2.05;1.85;;;;;;;6.99;62.69;101379.41;5114636;28;20044;-67
2023/02/14 09:33:55;;;;;;;10.32;1.60;;;;;;;6.95;62.87;101380.09;5115928;28;20058;-67
2023/02/14 09:36:24;;;;;;;1.95;1.85;;;;;;;7.00;62.68;101376.09;5115832;28;20036;-66
2023/02/14 09:38:52;;;;;;;4.17;1.80;;;;;;;6.96;62.93;101372.53;5115631;28;20043;-67
2023/02/14 09:41:49;;;;;;;0.68;0.68;;;;;;;6.94;63.00;101378.34;5116052;28;20374;-68
2023/02/14 09:44:28;;;;;;;1.48;1.38;;;;;;;6.95;62.69;101375.03;5107004;28;20386;-66
2023/02/14 09:47:07;;;;;;;0.63;0.63;;;;;;;7.01;61.91;101382.88;5095641;28;20420;-68
2023/02/14 09:49:39;;;;;;;1.73;0.98;;;;;;;7.06;62.53;101381.41;5109679;28;20088;-65
2023/02/14 09:52:13;;;;;;;0.85;0.75;;;;;;;7.23;62.29;101383.81;5102609;28;20485;-66
2023/02/14 09:54:49;;;;;;;1.55;1.45;;;;;;;7.37;61.80;101397.06;5097923;28;20101;-66
2023/02/14 09:57:28;;;;;;;1.73;1.40;;;;;;;7.39;61.67;101390.34;5115641;28;20382;-66
2023/02/14 10:00:06;;;;;;;0.93;0.93;;;;;;;7.55;61.50;101392.72;5115428;27;20071;-66
2023/02/14 10:02:49;;;;;;;3.85;2.50;;;;;;;7.68;61.73;101389.81;5115399;28;20043;-65
2023/02/14 10:05:22;;;;;;;1.65;1.20;;;;;;;7.82;61.02;101393.75;5115615;28;20093;-68
2023/02/14 10:08:00;;;;;;;1.48;1.38;;;;;;;7.86;60.80;101380.38;5104491;28;20040;-68
2023/02/14 10:10:35;;;;;;;2.20;1.58;;;;;;;7.85;60.51;101391.31;5098830;28;20054;-66
2023/02/14 10:13:14;;;;;;;0.80;0.80;;;;;;;7.73;60.87;101388.31;5094966;28;20040;-66
2023/02/14 10:15:45;;;;;;;1.90;1.67;;;;;;;7.63;60.37;101385.38;5094617;28;20117;-68
2023/02/14 10:18:21;;;;;;;0.50;0.50;;;;;;;7.67;60.67;101370.31;5095224;28;20149;-67
2023/02/14 10:20:52;;;;;;;1.83;1.10;;;;;;;7.93;60.51;101382.31;5095784;28;20052;-68
2023/02/14 10:23:31;;;;;;;0.73;0.73;;;;;;;8.21;59.58;101378.22;5115394;28;20084;-67
2023/02/14 10:26:02;;;;;;;1.50;1.15;;;;;;;8.36;59.65;101373.72;5115188;28;20058;-66
2023/02/14 10:28:34;;;;;;;0.80;0.80;;;;;;;8.54;58.71;101374.38;5115258;28;20166;-65
2023/02/14 10:31:17;;;;;;;3.05;0.85;;;;;;;8.71;58.32;101383.44;5108598;28;20040;-67
2023/02/14 10:33:54;;;;;;;0.98;0.93;;;;;;;8.74;57.87;101373.34;5098062;28;20043;-67
2023/02/14 10:36:56;;;;;;;2.03;1.80;;;;;;;8.85;57.55;101372.06;5094815;28;20044;-66
2023/02/14 10:39:49;;;;;;;0.88;0.88;;;;;;;9.06;57.41;101372.75;5107765;28;20086;-66
2023/02/14 10:42:26;;;;;;;1.15;0.90;;;;;;;9.28;56.97;101380.28;5097139;28;20044;-66
2023/02/14 10:45:05;;;;;;;2.05;1.42;;;;;;;9.42;56.71;101373.06;5094464;28;20044;-66
2023/02/14 10:47:43;;;;;;;1.80;1.48;;;;;;;9.50;56.68;101363.97;5094256;28;20050;-66
2023/02/14 10:50:20;;;;;;;1.42;1.13;;;;;;;9.50;55.76;101365.66;5096796;28;20052;-66
2023/02/14 10:53:03;;;;;;;2.28;1.23;;;;;;;9.35;55.18;101372.00;5114425;27;20486;-66
2023/02/14 10:55:43;;;;;;;0.98;0.77;;;;;;;9.26;55.56;101370.84;5114679;28;20126;-68
2023/02/14 10:58:16;;;;;;;5.90;2.08;;;;;;;9.05;54.76;101360.81;5111777;28;20436;-66
2023/02/14 11:00:54;;;;;;;0.75;0.75;;;;;;;9.14;55.93;101368.75;5105034;28;20506;-68
2023/02/14 11:03:24;;;;;;;2.40;2.20;;;;;;;9.40;55.84;101355.19;5094254;28;20040;-67
2023/02/14 11:05:54;;;;;;;2.15;1.63;;;;;;;9.50;55.70;101361.41;5093855;28;20054;-67
2023/02/14 11:08:28;;;;;;;2.90;1.95;;;;;;;9.65;55.45;101350.78;5101699;28;20126;-69
2023/02/14 11:11:05;;;;;;;1.45;1.27;;;;;;;9.67;55.34;101338.97;5105091;28;20090;-67
2023/02/14 11:13:36;;;;;;;1.95;1.75;;;;;;;10.01;55.37;101341.66;5098939;28;20048;-67
2023/02/14 11:16:07;;;;;;;1.23;1.05;;;;;;;10.08;54.98;101344.44;5110347;28;20130;-69
2023/02/14 11:18:38;;;;;;;0.43;0.43;;;;;;;9.94;54.83;101339.75;5113589;28;20108;-68
2023/02/14 11:21:13;;;;;;;0.90;0.85;;;;;;;10.13;54.94;101343.72;5111920;28;20050;-68
2023/02/14 11:23:44;;;;;;;0.85;0.85;;;;;;;10.12;53.96;101337.78;5113861;28;20047;-67
2023/02/14 11:26:23;;;;;;;2.85;1.25;;;;;;;10.18;54.40;101340.47;5114341;28;20401;-67
2023/02/14 11:28:56;;;;;;;0.65;0.65;;;;;;;9.76;54.05;101340.13;5114245;28;20413;-67
2023/02/14 11:31:31;;;;;;;2.10;1.77;;;;;;;9.98;54.05;101337.34;5114141;28;20146;-67
2023/02/14 11:34:02;;;;;;;1.33;1.17;;;;;;;10.06;53.47;101342.66;5114181;28;20120;-67
2023/02/14 11:36:41;;;;;;;1.73;1.60;;;;;;;9.99;54.01;101333.09;5114125;28;20043;-67
2023/02/14 11:39:25;;;;;;;1.65;1.55;;;;;;;10.06;53.06;101335.00;5114168;28;20056;-68
2023/02/14 11:41:56;;;;;;;17.90;1.02;;;;;;;10.26;53.39;101331.34;5098860;28;20097;-67
2023/02/14 11:44:27;;;;;;;0.40;0.40;;;;;;;10.29;53.37;101328.91;5095249;28;20060;-68
2023/02/14 11:47:16;;;;;;;2.38;1.17;;;;;;;10.40;53.64;101324.91;5113753;28;20047;-67
2023/02/14 11:49:55;;;;;;;0.38;0.38;;;;;;;10.16;52.76;101324.25;5114373;28;20385;-67
2023/02/14 11:52:28;;;;;;;1.65;1.23;;;;;;;10.01;52.86;101327.22;5113943;28;20482;-67
2023/02/14 11:54:58;;;;;;;1.30;1.20;;;;;;;10.05;53.31;101323.09;5100350;28;20040;-68
2023/02/14 11:57:30;;;;;;;1.10;1.02;;;;;;;10.08;52.88;101318.91;5093610;28;20097;-68
2023/02/14 12:00:04;;;;;;;1.85;1.48;;;;;;;10.32;52.78;101326.41;5096413;28;20063;-68
2023/02/14 12:02:43;;;;;;;6.28;2.17;;;;;;;10.53;53.12;101321.84;5099563;28;20109;-68
2023/02/14 12:05:20;;;;;;;0.52;0.52;;;;;;;10.81;52.72;101317.44;5093253;28;20048;-68
2023/02/14 12:07:52;;;;;;;1.13;0.75;;;;;;;10.66;52.05;101310.25;5093733;28;20048;-69
2023/02/14 12:10:29;;;;;;;0.50;0.50;;;;;;;10.65;52.27;101311.94;5093532;28;20098;-68
2023/02/14 12:13:03;;;;;;;0.73;0.73;;;;;;;10.52;52.21;101307.38;5093098;28;20040;-67
2023/02/14 12:15:39;;;;;;;0.40;0.40;;;;;;;10.64;51.95;101307.69;5093299;28;20056;-68
2023/02/14 12:18:31;;;;;;;1.77;1.67;;;;;;;10.76;51.88;101307.13;5093105;28;20036;-67
2023/02/14 12:21:08;;;;;;;2.47;1.58;;;;;;;11.00;51.62;101307.72;5093052;28;20078;-68